createdAt,value
2023-11-07T00:01:51.046Z,8.19
2023-11-07T00:04:56.712Z,8.43
2023-11-07T00:08:00.469Z,8.32
2023-11-07T00:11:04.988Z,8.37
2023-11-07T00:14:09.190Z,8.43
2023-11-07T00:17:12.906Z,8.57
2023-11-07T00:20:18.366Z,8.41
2023-11-07T00:23:22.125Z,8.25
2023-11-07T00:26:26.924Z,8.33
2023-11-07T00:29:31.316Z,8.56
2023-11-07T00:32:35.569Z,8.71
2023-11-07T00:35:42.417Z,8.62
2023-11-07T00:38:46.514Z,8.77
2023-11-07T00:41:50.261Z,8.60
2023-11-07T00:44:53.933Z,8.52
2023-11-07T00:47:58.191Z,8.48
2023-11-07T00:51:03.671Z,8.66
2023-11-07T00:54:08.577Z,8.63
2023-11-07T00:57:12.893Z,8.69
2023-11-07T01:00:17.716Z,8.69
2023-11-07T01:03:22.857Z,8.81
2023-11-07T01:06:28.143Z,8.82
2023-11-07T01:09:31.833Z,8.65
2023-11-07T01:12:35.550Z,8.66
2023-11-07T01:15:39.405Z,8.75
2023-11-07T01:18:43.141Z,8.69
2023-11-07T01:21:48.503Z,8.57
2023-11-07T01:24:52.236Z,8.55
2023-11-07T01:27:56.454Z,8.32
2023-11-07T01:31:00.143Z,8.12
2023-11-07T01:34:03.873Z,8.09
2023-11-07T01:37:09.086Z,8.15
2023-11-07T01:40:14.107Z,8.23
2023-11-07T01:43:18.047Z,8.47
2023-11-07T01:46:22.514Z,8.44
2023-11-07T01:49:26.784Z,8.36
2023-11-07T01:52:32.354Z,8.33
2023-11-07T01:55:36.466Z,8.44
2023-11-07T01:58:40.137Z,8.33
2023-11-07T02:01:46.033Z,8.38
2023-11-07T02:04:49.754Z,8.41
2023-11-07T02:07:56.141Z,8.48
2023-11-07T02:10:59.909Z,8.61
2023-11-07T02:14:04.031Z,8.69
2023-11-07T02:17:11.972Z,8.67
2023-11-07T02:20:15.780Z,8.56
2023-11-07T02:23:30.507Z,8.42
2023-11-07T02:26:34.304Z,8.41
2023-11-07T02:29:38.958Z,8.52
2023-11-07T02:32:43.448Z,8.52
2023-11-07T02:35:47.212Z,8.48
2023-11-07T02:38:52.404Z,8.50
2023-11-07T02:41:56.995Z,8.47
2023-11-07T02:45:00.920Z,8.47
2023-11-07T02:48:05.049Z,8.41
2023-11-07T02:51:09.000Z,8.31
2023-11-07T02:54:14.228Z,8.36
2023-11-07T02:57:18.069Z,8.28
2023-11-07T03:00:22.023Z,8.42
2023-11-07T03:03:26.610Z,8.26
2023-11-07T03:06:30.825Z,8.31
2023-11-07T03:09:36.518Z,8.18
2023-11-07T03:12:40.198Z,8.14
2023-11-07T03:15:45.278Z,8.30
2023-11-07T03:18:49.226Z,8.46
2023-11-07T03:21:53.063Z,8.46
2023-11-07T03:24:58.174Z,8.27
2023-11-07T03:28:01.870Z,8.11
2023-11-07T03:31:06.135Z,8.16
2023-11-07T03:34:11.161Z,8.20
2023-11-07T03:37:15.113Z,8.19
2023-11-07T03:40:21.460Z,8.39
2023-11-07T03:43:25.162Z,8.04
2023-11-07T03:46:28.796Z,8.04
2023-11-07T03:49:32.706Z,8.22
2023-11-07T03:52:36.394Z,8.16
2023-11-07T03:55:41.569Z,8.19
2023-11-07T03:58:45.459Z,8.06
2023-11-07T04:01:49.093Z,7.95
2023-11-07T04:04:52.747Z,8.10
2023-11-07T04:07:57.760Z,8.26
2023-11-07T04:11:02.961Z,8.07
2023-11-07T04:14:06.931Z,8.23
2023-11-07T04:17:10.608Z,8.20
2023-11-07T04:20:15.155Z,8.18
2023-11-07T04:23:19.321Z,8.07
2023-11-07T04:26:24.402Z,8.06
2023-11-07T04:29:28.162Z,8.08
2023-11-07T04:32:32.037Z,8.18
2023-11-07T04:35:36.402Z,8.16
2023-11-07T04:38:42.846Z,8.14
2023-11-07T04:41:48.025Z,8.13
2023-11-07T04:44:52.085Z,8.14
2023-11-07T04:47:56.389Z,8.19
2023-11-07T04:51:00.979Z,8.13
2023-11-07T04:54:05.075Z,8.24
2023-11-07T04:57:10.361Z,8.25
2023-11-07T05:00:17.098Z,8.19
2023-11-07T05:03:27.492Z,7.80
2023-11-07T05:06:36.733Z,8.03
2023-11-07T05:09:40.767Z,8.10
2023-11-07T05:12:45.820Z,8.23
2023-11-07T05:15:49.487Z,8.07
2023-11-07T05:18:53.628Z,8.09
2023-11-07T05:21:57.428Z,8.28
2023-11-07T05:25:01.086Z,8.31
2023-11-07T05:28:06.922Z,8.33
2023-11-07T05:31:11.168Z,8.34
2023-11-07T05:34:15.036Z,8.37
2023-11-07T05:37:18.901Z,8.23
2023-11-07T05:40:24.955Z,8.25
2023-11-07T05:43:30.195Z,8.30
2023-11-07T05:46:34.202Z,8.38
2023-11-07T05:49:37.861Z,8.33
2023-11-07T05:52:41.637Z,8.42
2023-11-07T05:55:46.189Z,8.42
2023-11-07T05:58:51.631Z,8.36
2023-11-07T06:01:55.530Z,8.48
2023-11-07T06:05:00.190Z,8.31
2023-11-07T06:08:03.920Z,8.44
2023-11-07T06:11:07.666Z,8.47
2023-11-07T06:14:12.702Z,8.27
2023-11-07T06:17:18.776Z,8.28
2023-11-07T06:20:22.683Z,8.13
2023-11-07T06:23:26.822Z,8.24
2023-11-07T06:26:31.079Z,7.97
2023-11-07T06:29:36.112Z,8.17
2023-11-07T06:32:40.126Z,7.96
2023-11-07T06:35:46.013Z,7.80
2023-11-07T06:38:49.848Z,7.96
2023-11-07T06:41:54.739Z,8.24
2023-11-07T06:45:00.374Z,8.18
2023-11-07T06:48:05.542Z,8.30
2023-11-07T06:51:10.997Z,8.28
2023-11-07T06:54:15.068Z,8.33
2023-11-07T06:57:18.935Z,8.32
2023-11-07T07:00:27.100Z,8.52
2023-11-07T07:03:31.384Z,8.41
2023-11-07T07:06:37.289Z,8.52
2023-11-07T07:09:42.450Z,8.57
2023-11-07T07:12:46.278Z,8.53
2023-11-07T07:15:51.346Z,8.70
2023-11-07T07:18:55.106Z,8.64
2023-11-07T07:21:58.853Z,8.70
2023-11-07T07:25:06.893Z,8.62
2023-11-07T07:28:10.582Z,8.70
2023-11-07T07:31:19.434Z,8.65
2023-11-07T07:34:23.591Z,8.66
2023-11-07T07:37:29.362Z,8.52
2023-11-07T07:40:33.430Z,8.80
2023-11-07T07:43:38.164Z,8.78
2023-11-07T07:46:45.388Z,8.93
2023-11-07T07:49:49.014Z,8.97
2023-11-07T07:52:57.301Z,9.05
2023-11-07T07:56:01.612Z,9.06
2023-11-07T07:59:06.671Z,8.93
2023-11-07T08:02:12.102Z,8.81
2023-11-07T08:05:18.241Z,8.95
2023-11-07T08:08:22.101Z,9.13
2023-11-07T08:11:25.755Z,9.23
2023-11-07T08:14:31.659Z,8.99
2023-11-07T08:17:38.914Z,9.10
2023-11-07T08:20:42.769Z,9.32
2023-11-07T08:23:46.503Z,9.37
2023-11-07T08:26:51.545Z,9.42
2023-11-07T08:29:55.675Z,9.45
2023-11-07T08:33:01.156Z,9.55
2023-11-07T08:36:05.272Z,9.45
2023-11-07T08:39:17.631Z,9.51
2023-11-07T08:42:21.563Z,9.50
2023-11-07T08:45:25.408Z,9.61
2023-11-07T08:48:32.163Z,9.72
2023-11-07T08:51:35.877Z,9.77
2023-11-07T08:54:40.431Z,9.73
2023-11-07T08:57:45.700Z,9.64
2023-11-07T09:00:52.419Z,9.59
2023-11-07T09:03:57.615Z,9.49
2023-11-07T09:07:02.233Z,9.62
2023-11-07T09:10:07.144Z,9.60
2023-11-07T09:13:12.189Z,9.66
2023-11-07T09:16:17.021Z,9.65
2023-11-07T09:19:22.179Z,9.67
2023-11-07T09:22:25.858Z,9.62
2023-11-07T09:25:29.521Z,9.65
2023-11-07T09:28:33.877Z,9.58
2023-11-07T09:31:37.840Z,9.65
2023-11-07T09:34:42.961Z,9.67
2023-11-07T09:37:46.752Z,9.67
2023-11-07T09:40:50.761Z,9.60
2023-11-07T09:43:55.056Z,9.77
2023-11-07T09:47:00.148Z,9.83
2023-11-07T09:50:08.992Z,9.68
2023-11-07T09:53:15.643Z,9.67
2023-11-07T09:56:19.756Z,9.87
2023-11-07T09:59:27.483Z,9.83
2023-11-07T10:02:32.815Z,9.86
2023-11-07T10:05:40.024Z,9.89
2023-11-07T10:08:44.268Z,9.92
2023-11-07T10:11:50.929Z,9.98
2023-11-07T10:14:54.821Z,10.03
2023-11-07T10:18:00.336Z,9.98
2023-11-07T10:21:05.826Z,10.05
2023-11-07T10:24:11.450Z,9.87
2023-11-07T10:27:16.497Z,10.01
2023-11-07T10:30:20.420Z,10.06
2023-11-07T10:33:29.795Z,9.94
2023-11-07T10:36:42.092Z,10.07
2023-11-07T10:39:57.024Z,10.06
2023-11-07T10:43:00.800Z,9.99
2023-11-07T10:46:05.936Z,10.06
2023-11-07T10:49:10.563Z,10.01
2023-11-07T10:52:18.212Z,10.08
2023-11-07T10:55:22.030Z,9.97
2023-11-07T10:58:28.395Z,9.82
2023-11-07T11:01:34.920Z,9.86
2023-11-07T11:04:40.678Z,9.93
2023-11-07T11:07:50.277Z,10.04
2023-11-07T11:10:54.746Z,10.04
2023-11-07T11:13:59.448Z,9.94
2023-11-07T11:17:08.791Z,9.93
2023-11-07T11:20:23.842Z,10.03
2023-11-07T11:23:40.696Z,10.10
2023-11-07T11:26:49.874Z,10.11
2023-11-07T11:29:53.645Z,10.11
2023-11-07T11:33:08.284Z,9.85
2023-11-07T11:36:45.175Z,9.79
2023-11-07T11:39:50.446Z,10.06
2023-11-07T11:43:06.540Z,9.75
2023-11-07T11:46:39.199Z,9.87
2023-11-07T11:50:16.724Z,9.92
2023-11-07T11:53:36.115Z,9.90
2023-11-07T11:57:09.332Z,9.83
2023-11-07T12:00:13.829Z,9.95
2023-11-07T12:03:20.047Z,9.85
2023-11-07T12:06:25.023Z,9.98
2023-11-07T12:09:32.008Z,9.98
2023-11-07T12:12:38.867Z,9.76
2023-11-07T12:15:44.711Z,9.47
2023-11-07T12:18:51.480Z,9.60
2023-11-07T12:21:56.678Z,9.73
2023-11-07T12:25:13.434Z,9.62
2023-11-07T12:28:18.537Z,9.60
2023-11-07T12:31:25.730Z,9.77
2023-11-07T12:34:33.349Z,9.63
2023-11-07T12:37:37.970Z,9.78
2023-11-07T12:40:41.866Z,9.76
2023-11-07T12:43:47.651Z,9.61
2023-11-07T12:46:52.035Z,9.68
2023-11-07T12:49:57.147Z,9.56
2023-11-07T12:53:02.134Z,9.70
2023-11-07T12:56:11.870Z,9.72
2023-11-07T12:59:18.970Z,9.71
2023-11-07T13:02:23.945Z,9.80
2023-11-07T13:05:28.015Z,9.58
2023-11-07T13:08:32.452Z,9.61
2023-11-07T13:11:36.500Z,9.51
2023-11-07T13:14:41.719Z,9.60
2023-11-07T13:17:45.909Z,9.77
2023-11-07T13:20:49.520Z,9.69
2023-11-07T13:23:54.574Z,9.58
2023-11-07T13:26:58.602Z,9.49
2023-11-07T13:30:06.598Z,9.55
2023-11-07T13:33:11.299Z,9.63
2023-11-07T13:36:16.703Z,9.53
2023-11-07T13:39:25.170Z,9.44
2023-11-07T13:42:29.098Z,9.35
2023-11-07T13:45:34.126Z,9.48
2023-11-07T13:48:38.720Z,9.46
2023-11-07T13:51:43.813Z,9.13
2023-11-07T13:54:47.510Z,9.13
2023-11-07T13:57:53.424Z,9.24
2023-11-07T14:00:58.801Z,9.09
2023-11-07T14:04:02.683Z,9.36
2023-11-07T14:07:07.673Z,9.44
2023-11-07T14:10:14.212Z,9.27
2023-11-07T14:13:19.441Z,9.36
2023-11-07T14:16:26.526Z,9.41
2023-11-07T14:19:32.189Z,9.49
2023-11-07T14:22:35.877Z,9.54
2023-11-07T14:25:39.637Z,9.45
2023-11-07T14:28:54.813Z,9.32
2023-11-07T14:32:07.904Z,9.39
2023-11-07T14:35:12.476Z,9.28
2023-11-07T14:38:17.108Z,9.42
2023-11-07T14:41:23.653Z,9.20
2023-11-07T14:44:27.489Z,9.37
2023-11-07T14:47:34.576Z,9.13
2023-11-07T14:50:39.872Z,9.08
2023-11-07T14:53:44.140Z,9.28
2023-11-07T14:56:57.804Z,9.09
2023-11-07T15:00:10.372Z,9.17
2023-11-07T15:03:15.791Z,9.06
2023-11-07T15:06:19.550Z,9.10
2023-11-07T15:09:23.408Z,9.21
2023-11-07T15:12:27.112Z,9.22
2023-11-07T15:15:31.393Z,9.23
2023-11-07T15:18:36.625Z,9.22
2023-11-07T15:21:40.547Z,9.14
2023-11-07T15:24:44.273Z,9.17
2023-11-07T15:27:48.571Z,9.24
2023-11-07T15:30:52.377Z,9.19
2023-11-07T15:33:57.559Z,9.14
2023-11-07T15:37:01.222Z,9.17
2023-11-07T15:40:07.871Z,9.06
2023-11-07T15:43:11.710Z,8.85
2023-11-07T15:46:15.494Z,8.81
2023-11-07T15:49:20.555Z,8.86
2023-11-07T15:52:24.999Z,8.94
2023-11-07T15:55:29.756Z,8.93
2023-11-07T15:58:33.751Z,9.00
2023-11-07T16:01:38.291Z,9.06
2023-11-07T16:04:43.470Z,9.07
2023-11-07T16:07:47.260Z,9.00
2023-11-07T16:10:51.005Z,9.13
2023-11-07T16:13:54.629Z,9.00
2023-11-07T16:16:58.326Z,8.77
2023-11-07T16:20:03.431Z,8.92
2023-11-07T16:23:09.719Z,8.64
2023-11-07T16:26:14.018Z,8.85
2023-11-07T16:29:18.488Z,8.98
2023-11-07T16:32:22.369Z,9.03
2023-11-07T16:35:27.506Z,8.93
2023-11-07T16:38:31.093Z,8.96
2023-11-07T16:41:35.707Z,8.99
2023-11-07T16:44:40.856Z,9.10
2023-11-07T16:47:44.892Z,9.04
2023-11-07T16:50:50.154Z,8.98
2023-11-07T16:53:54.851Z,9.04
2023-11-07T16:56:58.790Z,9.00
2023-11-07T17:00:04.871Z,8.97
2023-11-07T17:03:11.227Z,9.07
2023-11-07T17:06:16.689Z,8.98
2023-11-07T17:09:22.099Z,9.04
2023-11-07T17:12:25.944Z,9.04
2023-11-07T17:15:29.640Z,9.00
2023-11-07T17:18:35.545Z,9.09
2023-11-07T17:21:43.313Z,9.04
2023-11-07T17:24:47.856Z,9.08
2023-11-07T17:27:51.502Z,9.12
2023-11-07T17:30:55.191Z,8.94
2023-11-07T17:33:58.957Z,9.10
2023-11-07T17:37:04.950Z,9.16
2023-11-07T17:40:10.973Z,9.05
2023-11-07T17:43:14.636Z,9.05
2023-11-07T17:46:22.969Z,9.02
2023-11-07T17:49:26.756Z,9.06
2023-11-07T17:52:31.884Z,9.05
2023-11-07T17:55:35.714Z,8.92
2023-11-07T17:58:40.195Z,9.00
2023-11-07T18:01:43.982Z,8.82
2023-11-07T18:04:47.931Z,8.99
2023-11-07T18:07:52.948Z,9.01
2023-11-07T18:11:03.132Z,8.94
2023-11-07T18:14:06.912Z,8.93
2023-11-07T18:17:10.968Z,9.03
2023-11-07T18:20:14.760Z,8.97
2023-11-07T18:23:19.883Z,8.90
2023-11-07T18:26:23.910Z,8.84
2023-11-07T18:29:28.916Z,8.89
2023-11-07T18:32:32.625Z,9.02
2023-11-07T18:35:36.253Z,9.08
2023-11-07T18:38:42.855Z,9.05
2023-11-07T18:41:49.955Z,8.99
2023-11-07T18:44:53.613Z,9.05
2023-11-07T18:47:57.448Z,8.99
2023-11-07T18:51:01.455Z,9.04
2023-11-07T18:54:07.148Z,8.98
2023-11-07T18:57:14.017Z,8.99
2023-11-07T19:00:19.668Z,8.95
2023-11-07T19:03:23.473Z,9.01
2023-11-07T19:06:27.516Z,8.95
2023-11-07T19:09:32.933Z,8.90
2023-11-07T19:12:37.959Z,8.83
2023-11-07T19:15:41.766Z,8.93
2023-11-07T19:18:45.806Z,8.94
2023-11-07T19:21:49.493Z,8.94
2023-11-07T19:24:54.547Z,8.90
2023-11-07T19:27:59.541Z,8.93
2023-11-07T19:31:03.756Z,8.88
2023-11-07T19:34:07.460Z,8.85
2023-11-07T19:37:12.768Z,8.89
2023-11-07T19:40:21.802Z,8.64
2023-11-07T19:43:34.543Z,8.71
2023-11-07T19:46:43.764Z,8.77
2023-11-07T19:49:47.412Z,8.77
2023-11-07T19:52:57.665Z,8.73
2023-11-07T19:56:11.218Z,8.79
2023-11-07T19:59:14.991Z,8.72
2023-11-07T20:02:22.148Z,8.79
2023-11-07T20:05:27.570Z,8.73
2023-11-07T20:08:31.542Z,8.72
2023-11-07T20:11:38.414Z,8.84
2023-11-07T20:14:42.107Z,8.78
2023-11-07T20:17:45.958Z,8.69
2023-11-07T20:20:49.934Z,8.69
2023-11-07T20:23:54.633Z,8.70
2023-11-07T20:26:59.953Z,8.82
2023-11-07T20:30:04.010Z,8.71
2023-11-07T20:33:08.275Z,8.69
2023-11-07T20:36:15.911Z,8.72
2023-11-07T20:39:19.709Z,8.73
2023-11-07T20:42:24.963Z,8.72
2023-11-07T20:45:28.730Z,8.71
2023-11-07T20:48:36.002Z,8.74
2023-11-07T20:51:40.547Z,8.79
2023-11-07T20:54:44.326Z,8.71
2023-11-07T20:57:58.390Z,8.79
2023-11-07T21:01:05.745Z,8.76
2023-11-07T21:04:09.458Z,8.74
2023-11-07T21:07:13.888Z,8.78
2023-11-07T21:10:17.681Z,8.68
2023-11-07T21:13:24.252Z,8.73
2023-11-07T21:16:28.285Z,8.81
2023-11-07T21:19:32.314Z,8.74
2023-11-07T21:22:36.305Z,8.75
2023-11-07T21:25:40.154Z,8.72
2023-11-07T21:28:45.163Z,8.69
2023-11-07T21:31:53.171Z,8.71
2023-11-07T21:34:58.450Z,8.61
2023-11-07T21:38:02.085Z,8.73
2023-11-07T21:41:06.724Z,8.62
2023-11-07T21:44:12.127Z,8.67
2023-11-07T21:47:17.349Z,8.70
2023-11-07T21:50:22.146Z,8.72
2023-11-07T21:53:26.018Z,8.67
2023-11-07T21:56:30.575Z,8.68
2023-11-07T21:59:35.674Z,8.44
2023-11-07T22:02:40.036Z,8.66
2023-11-07T22:05:43.902Z,8.73
2023-11-07T22:08:48.210Z,8.68
2023-11-07T22:11:52.041Z,8.70
2023-11-07T22:14:57.030Z,8.72
2023-11-07T22:18:00.738Z,8.69
2023-11-07T22:21:06.011Z,8.65
2023-11-07T22:24:11.640Z,8.71
2023-11-07T22:27:15.578Z,8.67
2023-11-07T22:30:20.871Z,8.46
2023-11-07T22:33:24.741Z,8.49
2023-11-07T22:36:28.816Z,8.43
2023-11-07T22:39:32.560Z,8.44
2023-11-07T22:42:38.303Z,8.29
2023-11-07T22:45:43.711Z,8.20
2023-11-07T22:48:48.538Z,8.28
2023-11-07T22:51:52.280Z,8.31
2023-11-07T22:54:56.382Z,8.23
2023-11-07T22:58:00.043Z,8.11
2023-11-07T23:01:05.444Z,8.07
2023-11-07T23:04:09.190Z,8.03
2023-11-07T23:07:13.393Z,7.91
2023-11-07T23:10:17.164Z,7.83
2023-11-07T23:13:20.791Z,7.82
2023-11-07T23:16:25.946Z,7.84
2023-11-07T23:19:29.641Z,7.69
2023-11-07T23:22:33.234Z,7.58
2023-11-07T23:25:37.102Z,7.34
2023-11-07T23:28:40.877Z,7.37
2023-11-07T23:31:46.101Z,7.42
2023-11-07T23:34:49.700Z,7.29
2023-11-07T23:37:53.767Z,7.47
2023-11-07T23:40:57.489Z,7.57
2023-11-07T23:44:01.120Z,7.62
2023-11-07T23:47:06.739Z,7.72
2023-11-07T23:50:11.494Z,7.80
2023-11-07T23:53:15.289Z,7.85
2023-11-07T23:56:19.111Z,7.77
2023-11-07T23:59:22.799Z,7.78
